Time;durP1;ratioP1;P1;durP2;ratioP2;P2;SDS_P1;SDS_P2;PMS_P1;PMS_P2;Temp;Humidity;BMP_temperature;BMP_pressure;BME280_temperature;BME280_humidity;BME280_pressure;Samples;Min_cycle;Max_cycle;Signal;HPM_P1;HPM_P2
2022/01/23 00:00:34;;;;;;;38.67;26.00;;;7.50;99.90;;;;;;5032209;28;20454;-83
2022/01/23 00:03:02;;;;;;;43.77;25.60;;;7.50;99.90;;;;;;5027766;28;20451;-82
2022/01/23 00:05:34;;;;;;;34.40;23.57;;;7.50;99.90;;;;;;5031412;28;20487;-82
2022/01/23 00:08:02;;;;;;;39.17;26.23;;;7.40;99.90;;;;;;5029784;28;20453;-83
2022/01/23 00:10:29;;;;;;;41.60;26.53;;;7.40;99.90;;;;;;5016223;28;20492;-84
2022/01/23 00:13:07;;;;;;;42.40;26.27;;;7.40;99.90;;;;;;5010553;28;20460;-84
2022/01/23 00:18:21;;;;;;;46.73;27.00;;;7.40;99.90;;;;;;5013369;28;20843;-83
2022/01/23 00:20:50;;;;;;;45.63;27.07;;;7.40;99.90;;;;;;5017240;28;20971;-82
2022/01/23 00:31:37;;;;;;;38.40;25.43;;;7.30;99.90;;;;;;5010277;28;20462;-84
2022/01/23 00:34:04;;;;;;;38.17;25.57;;;7.30;99.90;;;;;;5006813;28;20837;-82
2022/01/23 00:36:31;;;;;;;45.23;26.03;;;7.30;99.90;;;;;;5007397;28;20506;-81
2022/01/23 00:38:58;;;;;;;41.80;25.67;;;7.30;99.90;;;;;;5016573;28;20447;-82
2022/01/23 00:41:25;;;;;;;42.00;27.70;;;7.30;99.90;;;;;;5012698;28;20486;-82
2022/01/23 00:43:53;;;;;;;44.03;28.17;;;7.30;99.90;;;;;;5004527;28;20474;-84
2022/01/23 00:46:30;;;;;;;43.83;27.03;;;7.30;99.90;;;;;;5010253;28;21107;-84
2022/01/23 00:51:26;;;;;;;39.07;25.50;;;7.30;99.90;;;;;;5017215;28;20925;-83
2022/01/23 00:53:56;;;;;;;42.57;25.83;;;7.30;99.90;;;;;;5011447;28;20479;-83
2022/01/23 00:56:23;;;;;;;40.20;25.80;;;7.20;99.90;;;;;;5013136;28;20484;-83
2022/01/23 00:58:50;;;;;;;40.73;25.00;;;7.20;99.90;;;;;;5012496;28;20458;-83
2022/01/23 01:01:17;;;;;;;37.03;24.50;;;7.20;99.90;;;;;;5004785;28;20471;-83
2022/01/23 01:03:45;;;;;;;38.37;25.50;;;7.20;99.90;;;;;;5010107;28;20531;-81
2022/01/23 01:06:12;;;;;;;37.53;24.97;;;7.20;99.90;;;;;;5012754;28;20466;-82
2022/01/23 01:08:40;;;;;;;37.23;25.37;;;7.20;99.90;;;;;;5010139;28;20465;-83
2022/01/23 01:14:31;;;;;;;39.60;25.00;;;7.20;99.90;;;;;;5012184;28;20563;-82
2022/01/23 01:33:20;;;;;;;40.67;23.97;;;7.20;99.90;;;;;;5010039;28;20463;-82
2022/01/23 01:35:57;;;;;;;39.03;24.70;;;7.20;99.90;;;;;;5010495;28;20471;-83
2022/01/23 01:38:24;;;;;;;40.80;24.77;;;7.30;99.90;;;;;;5009880;28;20466;-82
2022/01/23 01:40:52;;;;;;;37.50;24.00;;;7.30;99.90;;;;;;5010807;28;20458;-82
2022/01/23 01:43:19;;;;;;;40.27;25.20;;;7.30;99.90;;;;;;5004712;28;20458;-82
2022/01/23 01:45:46;;;;;;;37.73;25.37;;;7.30;99.90;;;;;;5008213;28;20486;-81
2022/01/23 01:48:15;;;;;;;38.13;24.20;;;7.30;99.90;;;;;;5008386;28;20467;-83
2022/01/23 01:50:46;;;;;;;40.50;25.07;;;7.30;99.90;;;;;;5014373;28;20467;-83
2022/01/23 01:53:13;;;;;;;38.63;25.80;;;7.30;99.90;;;;;;5013634;28;20919;-83
2022/01/23 01:55:45;;;;;;;39.80;24.60;;;7.30;99.90;;;;;;5004718;28;20482;-83
2022/01/23 02:01:02;;;;;;;40.80;25.90;;;7.30;99.90;;;;;;5015413;28;20783;-82
2022/01/23 02:08:21;;;;;;;42.77;27.90;;;7.40;99.90;;;;;;5008273;28;20458;-81
2022/01/23 02:09:15;;;;;;;34.70;25.10;;;7.40;99.90;;;;;;5003634;28;20469;-84
2022/01/23 02:14:28;;;;;;;34.90;24.83;;;7.40;99.90;;;;;;5018361;28;20454;-82
2022/01/23 02:50:41;;;;;;;38.10;24.40;;;7.20;99.90;;;;;;5009391;28;20458;-83
2022/01/23 02:53:31;;;;;;;34.17;23.30;;;7.30;99.90;;;;;;5019304;28;20474;-81
2022/01/23 02:56:00;;;;;;;39.40;25.10;;;7.30;99.90;;;;;;5030595;28;20482;-82
2022/01/23 02:58:46;;;;;;;43.57;25.27;;;7.30;99.90;;;;;;5019069;28;20461;-83
2022/01/23 03:01:18;;;;;;;37.23;25.07;;;7.30;99.90;;;;;;5018850;28;20466;-82
2022/01/23 03:03:49;;;;;;;38.70;25.50;;;7.40;99.90;;;;;;5014128;28;20460;-81
2022/01/23 03:06:36;;;;;;;36.87;23.80;;;7.30;99.90;;;;;;5033126;28;20481;-83
2022/01/23 03:12:27;;;;;;;38.10;24.40;;;7.30;99.90;;;;;;5014089;28;20862;-82
2022/01/23 03:15:04;;;;;;;39.30;24.90;;;7.30;99.90;;;;;;5006524;28;20470;-81
2022/01/23 03:28:36;;;;;;;33.70;23.37;;;7.30;99.90;;;;;;5014431;28;20453;-84
2022/01/23 03:33:35;;;;;;;37.60;26.30;;;7.30;99.90;;;;;;5025117;28;20454;-82
2022/01/23 03:36:03;;;;;;;40.20;24.10;;;7.30;99.90;;;;;;5021808;28;20482;-83
2022/01/23 03:38:30;;;;;;;34.17;23.10;;;7.30;99.90;;;;;;5020813;28;20506;-84
2022/01/23 03:40:56;;;;;;;34.87;22.73;;;7.30;99.90;;;;;;5012627;28;20937;-83
2022/01/23 03:43:32;;;;;;;38.23;22.80;;;7.30;99.90;;;;;;5016144;28;20451;-83
2022/01/23 03:46:22;;;;;;;37.67;23.10;;;7.30;99.90;;;;;;5014337;28;20547;-82
2022/01/23 03:51:36;;;;;;;31.83;22.27;;;7.30;99.90;;;;;;5011853;28;20827;-82
2022/01/23 03:54:04;;;;;;;34.50;22.03;;;7.40;99.90;;;;;;5013233;28;20455;-83
2022/01/23 03:56:31;;;;;;;33.80;22.83;;;7.30;99.90;;;;;;5012814;28;20478;-83
2022/01/23 03:58:58;;;;;;;33.13;22.40;;;7.30;99.90;;;;;;5007415;28;20463;-80
2022/01/23 04:01:25;;;;;;;33.93;22.60;;;7.30;99.90;;;;;;5016495;28;20458;-84
2022/01/23 04:03:56;;;;;;;37.30;22.97;;;7.30;99.90;;;;;;5030631;28;20459;-84
2022/01/23 04:06:23;;;;;;;33.80;22.50;;;7.30;99.90;;;;;;5021920;28;20892;-83
2022/01/23 04:08:50;;;;;;;35.43;22.73;;;7.30;99.90;;;;;;5018176;28;20895;-81
2022/01/23 04:11:17;;;;;;;36.50;21.93;;;7.30;99.90;;;;;;5019318;28;20933;-84
2022/01/23 04:13:50;;;;;;;33.00;21.33;;;7.30;99.90;;;;;;5015748;28;20452;-83
2022/01/23 04:16:44;;;;;;;31.70;21.43;;;7.30;99.90;;;;;;5014687;28;20478;-83
2022/01/23 04:45:16;;;;;;;30.20;20.37;;;7.30;99.90;;;;;;5016458;28;20498;-82
2022/01/23 05:00:47;;;;;;;38.73;22.20;;;7.40;99.90;;;;;;5002512;28;20463;-82
2022/01/23 05:05:44;;;;;;;38.20;22.57;;;7.60;99.90;;;;;;5010124;28;20479;-83
2022/01/23 05:08:17;;;;;;;37.40;22.70;;;7.60;99.90;;;;;;5011013;28;20662;-83
2022/01/23 05:10:45;;;;;;;34.33;22.90;;;7.50;99.90;;;;;;5015307;28;20459;-81
2022/01/23 05:13:12;;;;;;;35.70;23.80;;;7.50;99.90;;;;;;5018471;28;20459;-82
2022/01/23 05:15:39;;;;;;;36.67;22.87;;;7.90;99.90;;;;;;5012345;28;21174;-82
2022/01/23 05:18:06;;;;;;;35.90;23.90;;;8.00;99.90;;;;;;5010342;28;20533;-83
2022/01/23 05:20:33;;;;;;;31.37;21.13;;;7.80;99.90;;;;;;5012524;28;20944;-82
2022/01/23 05:23:04;;;;;;;37.73;23.40;;;7.70;99.90;;;;;;5010661;28;20466;-83
2022/01/23 05:25:33;;;;;;;35.47;23.77;;;7.60;99.90;;;;;;5012157;28;20528;-83
2022/01/23 05:28:00;;;;;;;32.90;23.77;;;7.60;99.90;;;;;;5015522;28;20462;-83
2022/01/23 05:30:27;;;;;;;32.70;21.80;;;7.50;99.90;;;;;;5009238;28;20476;-83
2022/01/23 05:32:55;;;;;;;37.60;22.10;;;7.40;99.90;;;;;;5010985;28;20500;-82
2022/01/23 05:35:23;;;;;;;34.17;22.03;;;7.40;99.90;;;;;;5016267;28;20483;-83
2022/01/23 05:37:50;;;;;;;33.50;23.17;;;7.50;99.90;;;;;;5016417;28;20539;-82
2022/01/23 05:40:19;;;;;;;35.73;22.97;;;7.50;99.90;;;;;;5017284;28;20473;-82
2022/01/23 05:42:46;;;;;;;34.40;22.87;;;7.50;99.90;;;;;;5012693;28;20455;-83
2022/01/23 05:45:12;;;;;;;37.03;22.50;;;7.40;99.90;;;;;;5013949;28;20498;-82
2022/01/23 05:47:39;;;;;;;33.80;21.97;;;7.30;99.90;;;;;;5013644;28;20469;-83
2022/01/23 05:50:06;;;;;;;32.53;22.50;;;7.30;99.90;;;;;;5015336;28;20470;-83
2022/01/23 05:52:34;;;;;;;35.97;24.10;;;7.40;99.90;;;;;;5007952;28;20541;-83
2022/01/23 05:55:01;;;;;;;35.70;22.43;;;7.50;99.90;;;;;;5011155;28;20510;-83
2022/01/23 05:57:28;;;;;;;35.50;24.20;;;7.60;99.90;;;;;;5015396;28;20518;-83
2022/01/23 05:59:55;;;;;;;33.13;22.80;;;7.60;99.90;;;;;;5005038;28;20473;-82
2022/01/23 06:02:22;;;;;;;36.40;23.73;;;7.50;99.90;;;;;;5021774;28;20969;-82
2022/01/23 06:04:48;;;;;;;36.70;24.20;;;7.40;99.90;;;;;;5018115;28;20502;-81
2022/01/23 06:07:15;;;;;;;35.93;23.43;;;7.50;99.90;;;;;;5013484;28;20470;-79
2022/01/23 06:09:42;;;;;;;34.07;22.77;;;7.60;99.90;;;;;;5021434;28;20467;-82
2022/01/23 06:12:09;;;;;;;35.57;23.67;;;7.60;99.90;;;;;;5026373;28;20486;-82
2022/01/23 06:14:36;;;;;;;36.00;23.30;;;7.60;99.90;;;;;;5017058;28;20439;-82
2022/01/23 06:17:02;;;;;;;33.67;21.87;;;7.60;99.90;;;;;;5023912;28;20657;-82
2022/01/23 06:19:29;;;;;;;33.10;23.27;;;7.90;99.90;;;;;;5027447;28;20455;-82
2022/01/23 06:21:56;;;;;;;39.50;24.67;;;7.90;99.90;;;;;;5024222;28;20492;-83
2022/01/23 06:24:28;;;;;;;32.87;23.10;;;8.00;99.90;;;;;;5011730;28;20487;-83
2022/01/23 06:26:57;;;;;;;35.07;23.30;;;7.80;99.90;;;;;;5013481;28;20482;-83
2022/01/23 06:29:25;;;;;;;38.10;22.23;;;7.80;99.90;;;;;;5022640;28;20488;-83
2022/01/23 06:31:53;;;;;;;40.03;23.67;;;8.00;99.90;;;;;;5010293;28;20502;-82
2022/01/23 06:34:20;;;;;;;33.13;22.53;;;8.10;99.90;;;;;;5020739;28;20459;-81
2022/01/23 06:36:50;;;;;;;34.17;21.93;;;7.90;99.90;;;;;;5024690;28;20474;-80
2022/01/23 06:39:17;;;;;;;32.07;21.10;;;7.70;99.90;;;;;;5026027;28;20456;-82
2022/01/23 06:41:46;;;;;;;37.17;23.50;;;7.60;99.90;;;;;;5034149;28;20464;-82
2022/01/23 06:44:13;;;;;;;30.00;20.17;;;7.90;99.90;;;;;;5039490;28;20518;-82
2022/01/23 06:46:40;;;;;;;35.83;23.73;;;7.90;99.90;;;;;;5042310;28;20478;-83
2022/01/23 06:49:08;;;;;;;38.47;23.70;;;8.00;99.90;;;;;;5035520;28;20466;-84
2022/01/23 06:51:35;;;;;;;37.13;23.80;;;8.00;99.90;;;;;;5024519;28;20482;-82
2022/01/23 06:54:02;;;;;;;38.13;23.90;;;8.00;99.90;;;;;;5017044;28;20556;-80
2022/01/23 06:56:28;;;;;;;34.77;23.97;;;7.90;99.90;;;;;;5018702;28;20542;-81
2022/01/23 06:58:56;;;;;;;36.90;23.83;;;7.90;99.90;;;;;;5030392;28;20446;-80
2022/01/23 07:01:22;;;;;;;32.80;21.70;;;7.70;99.90;;;;;;5018637;28;20472;-82
2022/01/23 07:03:49;;;;;;;35.13;23.43;;;7.70;99.90;;;;;;5019201;28;20571;-82
2022/01/23 07:06:16;;;;;;;30.33;19.00;;;7.80;99.90;;;;;;5027573;28;20481;-82
2022/01/23 07:09:03;;;;;;;35.83;22.70;;;7.60;99.90;;;;;;5040169;28;20465;-83
2022/01/23 07:11:30;;;;;;;33.33;21.77;;;7.70;99.90;;;;;;5026484;28;20555;-83
2022/01/23 07:13:56;;;;;;;30.10;20.77;;;7.60;99.90;;;;;;5017926;28;20461;-82
2022/01/23 07:16:23;;;;;;;31.60;21.57;;;7.50;99.90;;;;;;5017396;28;20474;-83
2022/01/23 07:18:50;;;;;;;34.27;22.23;;;7.40;99.90;;;;;;5016630;28;20724;-82
2022/01/23 07:21:17;;;;;;;31.90;20.90;;;7.40;99.90;;;;;;5024622;28;20450;-83
2022/01/23 07:23:50;;;;;;;32.27;20.90;;;7.40;99.90;;;;;;5021991;28;20511;-82
2022/01/23 07:26:20;;;;;;;36.97;22.57;;;7.30;99.90;;;;;;5022035;28;20485;-83
2022/01/23 07:28:47;;;;;;;33.30;19.83;;;7.30;99.90;;;;;;5020691;28;20456;-82
2022/01/23 07:31:31;;;;;;;30.03;19.60;;;7.30;99.90;;;;;;5025746;28;20493;-81
2022/01/23 07:34:02;;;;;;;28.30;19.17;;;7.30;99.90;;;;;;5017349;28;20481;-83
2022/01/23 07:36:29;;;;;;;30.40;19.97;;;7.30;99.90;;;;;;5017830;28;20490;-83
2022/01/23 07:38:57;;;;;;;31.90;19.87;;;7.30;99.90;;;;;;5018032;28;20972;-82
2022/01/23 07:41:24;;;;;;;34.67;23.43;;;7.30;99.90;;;;;;5025559;28;20524;-83
2022/01/23 07:43:50;;;;;;;30.57;19.23;;;7.30;99.90;;;;;;5016655;28;20885;-83
2022/01/23 07:46:19;;;;;;;31.57;19.97;;;7.40;99.90;;;;;;5009483;28;20511;-84
2022/01/23 07:48:45;;;;;;;29.67;19.40;;;7.40;99.90;;;;;;5015979;28;20515;-82
2022/01/23 07:51:13;;;;;;;30.00;18.77;;;7.40;99.90;;;;;;5021140;28;20466;-81
2022/01/23 07:53:39;;;;;;;31.20;19.57;;;7.50;99.90;;;;;;5023300;28;20490;-82
2022/01/23 07:56:06;;;;;;;26.43;18.80;;;7.60;99.90;;;;;;5011095;28;20490;-82
2022/01/23 07:58:33;;;;;;;29.10;19.40;;;7.60;99.90;;;;;;5008066;28;20468;-81
2022/01/23 08:01:00;;;;;;;24.80;17.50;;;7.50;99.90;;;;;;5030349;28;20459;-83
2022/01/23 08:03:27;;;;;;;30.80;19.53;;;7.50;99.90;;;;;;5020266;28;20458;-83
2022/01/23 08:05:53;;;;;;;30.43;18.87;;;7.40;99.90;;;;;;5015079;28;20472;-84
2022/01/23 08:08:20;;;;;;;32.30;21.03;;;7.80;99.90;;;;;;5015009;28;20510;-82
2022/01/23 08:10:47;;;;;;;31.43;21.30;;;8.20;99.90;;;;;;5008835;28;20477;-82
2022/01/23 08:13:13;;;;;;;32.40;21.07;;;8.20;99.90;;;;;;5025047;28;20485;-83
2022/01/23 08:15:40;;;;;;;36.30;19.67;;;8.20;99.90;;;;;;5019428;28;20471;-82
2022/01/23 08:18:08;;;;;;;30.00;19.20;;;8.30;99.90;;;;;;5011809;28;20871;-83
2022/01/23 08:20:35;;;;;;;29.70;19.27;;;8.40;99.90;;;;;;5009569;28;20457;-81
2022/01/23 08:23:04;;;;;;;31.63;19.37;;;8.20;99.90;;;;;;5011448;28;20467;-82
2022/01/23 08:25:32;;;;;;;29.87;19.10;;;8.20;99.90;;;;;;5006167;28;20997;-81
2022/01/23 08:27:59;;;;;;;32.50;19.70;;;8.20;99.90;;;;;;5007532;28;20452;-81
2022/01/23 08:30:26;;;;;;;33.33;18.87;;;8.20;99.90;;;;;;5013433;28;20459;-84
2022/01/23 08:32:53;;;;;;;29.23;19.33;;;8.10;99.90;;;;;;5016171;28;20636;-82
2022/01/23 08:35:20;;;;;;;33.73;20.13;;;8.10;99.90;;;;;;5015995;28;20474;-83
2022/01/23 08:37:47;;;;;;;26.67;18.63;;;8.10;99.90;;;;;;5016659;28;20466;-83
2022/01/23 08:40:21;;;;;;;29.00;19.17;;;8.00;99.90;;;;;;5017367;28;20479;-85
2022/01/23 08:42:51;;;;;;;30.70;20.43;;;8.20;99.90;;;;;;5014915;28;20508;-83
2022/01/23 08:45:19;;;;;;;35.07;19.90;;;8.30;99.90;;;;;;5016889;28;20481;-83
2022/01/23 08:47:47;;;;;;;36.43;21.37;;;8.30;99.90;;;;;;5025967;28;20494;-83
2022/01/23 08:50:14;;;;;;;30.60;17.60;;;8.10;99.90;;;;;;5017350;28;20469;-83
2022/01/23 08:52:41;;;;;;;27.13;19.20;;;7.90;99.90;;;;;;5020405;28;20474;-81
2022/01/23 08:55:08;;;;;;;26.33;18.00;;;7.90;99.90;;;;;;5016139;28;20491;-83
2022/01/23 08:57:35;;;;;;;29.10;19.67;;;8.10;99.90;;;;;;5012275;28;20823;-84
2022/01/23 09:00:22;;;;;;;34.17;21.63;;;8.20;99.90;;;;;;5017059;28;20629;-83
2022/01/23 09:02:49;;;;;;;31.03;19.60;;;8.20;99.90;;;;;;5029495;28;20791;-82
2022/01/23 09:05:18;;;;;;;31.27;19.80;;;8.50;99.90;;;;;;5017985;28;20509;-83
2022/01/23 09:07:44;;;;;;;32.77;19.13;;;8.50;99.90;;;;;;5024764;28;20654;-83
2022/01/23 09:10:11;;;;;;;34.07;21.77;;;8.50;99.90;;;;;;5007066;28;20474;-83
2022/01/23 09:15:06;;;;;;;38.43;21.83;;;8.60;99.90;;;;;;5007544;28;20469;-83
2022/01/23 09:17:34;;;;;;;32.97;20.10;;;8.60;99.90;;;;;;5008012;28;20469;-82
2022/01/23 09:20:01;;;;;;;34.43;21.80;;;8.50;99.90;;;;;;5021690;28;20461;-82
2022/01/23 09:22:30;;;;;;;33.40;22.03;;;8.50;99.90;;;;;;5016298;28;20458;-82
2022/01/23 09:24:58;;;;;;;34.10;23.30;;;8.40;99.90;;;;;;5017202;28;20455;-83
2022/01/23 09:27:25;;;;;;;35.63;20.37;;;8.20;99.90;;;;;;5008394;28;20466;-81
2022/01/23 09:29:54;;;;;;;33.17;20.07;;;8.00;99.90;;;;;;5010617;28;20471;-82
2022/01/23 09:32:23;;;;;;;32.13;20.80;;;8.20;99.90;;;;;;5024127;28;20492;-83
2022/01/23 09:34:51;;;;;;;28.37;19.20;;;8.30;99.90;;;;;;5020572;28;20458;-83
2022/01/23 09:37:19;;;;;;;35.57;21.73;;;8.30;99.90;;;;;;5023245;28;20464;-82
2022/01/23 09:39:51;;;;;;;34.93;21.67;;;8.30;99.90;;;;;;5014938;28;20498;-82
2022/01/23 09:42:26;;;;;;;40.53;23.03;;;8.30;99.90;;;;;;5010532;28;20459;-81
2022/01/23 09:45:00;;;;;;;39.13;24.30;;;8.30;99.90;;;;;;5015391;28;20466;-83
2022/01/23 09:47:28;;;;;;;44.33;23.80;;;8.30;99.90;;;;;;5005915;28;20463;-82
2022/01/23 09:49:55;;;;;;;38.10;23.80;;;8.30;99.90;;;;;;5019110;28;20458;-83
2022/01/23 09:52:29;;;;;;;42.73;26.10;;;8.30;99.90;;;;;;5017401;28;20557;-83
2022/01/23 09:55:00;;;;;;;37.80;24.20;;;8.20;99.90;;;;;;5027153;28;20471;-82
2022/01/23 09:57:30;;;;;;;33.67;22.53;;;8.10;99.90;;;;;;5012418;28;20538;-81
2022/01/23 09:59:59;;;;;;;35.10;22.30;;;8.20;99.90;;;;;;5012718;28;20472;-82
2022/01/23 10:02:27;;;;;;;38.83;23.73;;;8.10;99.90;;;;;;5018922;28;20461;-83
2022/01/23 10:05:00;;;;;;;38.63;23.10;;;8.10;99.90;;;;;;5021983;28;20470;-84
2022/01/23 10:07:27;;;;;;;38.93;23.77;;;8.10;99.90;;;;;;5028284;28;20458;-82
2022/01/23 10:10:06;;;;;;;36.30;22.20;;;8.20;99.90;;;;;;5025763;28;20477;-84
2022/01/23 10:12:34;;;;;;;38.70;23.33;;;8.30;99.90;;;;;;5010828;28;20479;-83
2022/01/23 10:15:02;;;;;;;38.23;22.10;;;8.20;99.90;;;;;;5023009;28;20470;-82
2022/01/23 10:17:28;;;;;;;38.30;22.87;;;8.00;99.90;;;;;;5027732;28;20464;-81
2022/01/23 10:19:56;;;;;;;37.80;23.07;;;7.90;99.90;;;;;;5022541;28;20808;-82
2022/01/23 10:22:25;;;;;;;37.27;23.50;;;8.10;99.90;;;;;;5012751;28;20455;-83
2022/01/23 10:24:51;;;;;;;42.00;26.47;;;8.30;99.90;;;;;;5021577;28;20934;-83
2022/01/23 10:27:21;;;;;;;43.13;26.13;;;8.30;99.90;;;;;;5019161;28;20458;-82
2022/01/23 10:29:47;;;;;;;40.60;25.70;;;8.30;99.90;;;;;;5013673;28;20465;-81
2022/01/23 10:32:21;;;;;;;39.10;24.57;;;8.20;99.90;;;;;;5016398;28;21156;-83
2022/01/23 10:34:57;;;;;;;37.27;23.87;;;8.30;99.90;;;;;;5028063;28;20464;-82
2022/01/23 10:37:40;;;;;;;41.00;24.50;;;8.40;99.90;;;;;;5038800;28;20462;-82
2022/01/23 10:40:24;;;;;;;45.50;24.57;;;8.40;99.90;;;;;;5031053;28;20463;-82
2022/01/23 10:48:54;;;;;;;39.10;22.90;;;8.10;99.90;;;;;;5011509;28;20499;-82
2022/01/23 10:51:29;;;;;;;36.67;23.63;;;7.90;99.90;;;;;;4993257;28;20477;-81
2022/01/23 10:54:06;;;;;;;40.90;24.27;;;8.00;99.90;;;;;;5005573;28;20485;-82
2022/01/23 10:56:57;;;;;;;36.60;23.20;;;8.20;99.90;;;;;;5014750;28;20474;-81
2022/01/23 10:59:25;;;;;;;41.93;23.13;;;8.20;99.90;;;;;;5005216;28;20554;-83
2022/01/23 11:02:07;;;;;;;33.53;23.50;;;8.10;99.90;;;;;;5010779;28;20461;-82
2022/01/23 11:04:56;;;;;;;35.37;22.70;;;8.40;99.90;;;;;;5009142;28;20459;-83
2022/01/23 11:07:25;;;;;;;38.80;23.43;;;8.50;99.90;;;;;;5034440;28;20465;-82
2022/01/23 11:10:02;;;;;;;38.17;24.20;;;8.50;99.90;;;;;;5019721;28;20461;-82
2022/01/23 11:18:29;;;;;;;34.87;23.77;;;8.20;99.90;;;;;;4985055;28;20497;-85
2022/01/23 11:21:21;;;;;;;38.63;23.60;;;8.20;99.90;;;;;;4993677;28;20491;-86
2022/01/23 11:24:08;;;;;;;37.27;23.70;;;8.30;99.90;;;;;;5012163;28;20447;-88
2022/01/23 11:26:42;;;;;;;41.77;26.03;;;8.50;99.90;;;;;;5006473;28;20483;-87
2022/01/23 11:29:18;;;;;;;42.10;24.20;;;8.50;99.90;;;;;;4994813;28;20503;-87
2022/01/23 11:31:58;;;;;;;41.40;25.37;;;8.40;99.90;;;;;;4996383;28;20459;-87
2022/01/23 11:34:29;;;;;;;48.40;26.70;;;8.30;99.90;;;;;;4998006;28;20494;-87
2022/01/23 11:36:56;;;;;;;40.90;25.93;;;8.30;99.90;;;;;;5055093;23;21001;-87
2022/01/23 11:39:48;;;;;;;41.20;25.43;;;8.30;99.90;;;;;;5058165;28;20499;-85
2022/01/23 11:56:08;;;;;;;39.40;24.50;;;8.00;99.90;;;;;;5056913;28;20532;-86
2022/01/23 11:59:18;;;;;;;39.73;24.23;;;8.30;99.90;;;;;;5054604;28;20950;-85
2022/01/23 12:02:36;;;;;;;39.53;25.57;;;8.20;99.90;;;;;;5099776;23;20521;-86
2022/01/23 12:05:43;;;;;;;;;;;;;;;;;;;;;
2022/01/23 12:08:38;;;;;;;36.90;23.70;;;8.40;99.90;;;;;;5016637;28;20465;-86
2022/01/23 12:11:41;;;;;;;44.77;27.10;;;8.50;99.90;;;;;;5013947;28;20481;-86
2022/01/23 12:17:46;;;;;;;39.20;25.10;;;8.70;99.90;;;;;;5010353;28;20506;-85
2022/01/23 12:20:50;;;;;;;43.50;25.50;;;8.60;99.90;;;;;;5019450;28;20458;-86
2022/01/23 12:23:26;;;;;;;40.40;23.50;;;8.50;99.90;;;;;;5015161;28;20474;-88
2022/01/23 12:25:57;;;;;;;40.60;22.47;;;8.40;99.90;;;;;;5022360;28;20489;-87
2022/01/23 12:28:42;;;;;;;41.37;24.20;;;8.40;99.90;;;;;;5019290;28;20464;-87
2022/01/23 12:31:20;;;;;;;42.40;26.60;;;8.40;99.90;;;;;;5015099;28;20999;-87
2022/01/23 12:34:01;;;;;;;41.30;25.53;;;8.40;99.90;;;;;;5012297;28;20504;-84
2022/01/23 12:36:33;;;;;;;35.93;22.70;;;8.30;99.90;;;;;;5028624;28;20499;-86
2022/01/23 12:39:19;;;;;;;40.07;24.23;;;8.30;99.90;;;;;;5013950;28;20826;-86
2022/01/23 12:42:02;;;;;;;40.77;22.90;;;8.50;99.90;;;;;;5016301;28;20479;-86
2022/01/23 12:45:02;;;;;;;35.50;22.80;;;8.60;99.90;;;;;;5018656;28;20459;-86
2022/01/23 12:47:29;;;;;;;40.20;23.23;;;8.60;99.90;;;;;;5023154;28;20486;-85
2022/01/23 12:49:59;;;;;;;36.73;22.57;;;8.60;99.90;;;;;;5029911;28;20481;-85
2022/01/23 12:52:25;;;;;;;33.73;22.07;;;8.70;99.90;;;;;;5024618;28;20524;-86
2022/01/23 12:55:06;;;;;;;36.40;22.30;;;8.80;99.90;;;;;;5019011;28;20470;-88
2022/01/23 12:57:39;;;;;;;35.13;20.90;;;8.70;99.90;;;;;;5020243;28;20473;-86
2022/01/23 13:00:22;;;;;;;34.77;20.60;;;8.80;99.90;;;;;;5022620;28;20461;-87
2022/01/23 13:03:05;;;;;;;;;;;;;;;;;;;;;
2022/01/23 13:05:57;;;;;;;32.87;21.00;;;8.80;99.90;;;;;;5025635;28;20472;-85
2022/01/23 13:27:14;;;;;;;34.87;22.77;;;8.50;99.90;;;;;;5016741;28;20539;-86
2022/01/23 13:36:51;;;;;;;31.90;20.20;;;8.50;99.90;;;;;;5004776;28;20475;-87
2022/01/23 13:39:36;;;;;;;32.33;20.10;;;8.40;99.90;;;;;;5031135;28;20471;-87
2022/01/23 13:53:24;;;;;;;36.43;20.60;;;8.70;99.90;;;;;;5010898;28;20762;-87
2022/01/23 13:58:39;;;;;;;42.17;21.67;;;8.80;99.90;;;;;;5010452;28;20451;-87
2022/01/23 14:01:32;;;;;;;36.00;22.57;;;8.60;99.90;;;;;;5007367;28;20451;-85
2022/01/23 14:04:06;;;;;;;35.03;20.90;;;8.70;99.90;;;;;;5002657;28;20838;-85
2022/01/23 14:06:33;;;;;;;35.03;19.60;;;8.70;99.90;;;;;;5016137;28;20564;-86
2022/01/23 14:09:12;;;;;;;35.00;18.63;;;8.50;99.90;;;;;;5013329;28;20447;-86
2022/01/23 14:11:48;;;;;;;35.17;20.37;;;8.50;99.90;;;;;;5019458;28;21165;-86
2022/01/23 14:14:24;;;;;;;33.40;20.40;;;8.70;99.90;;;;;;5019711;28;20483;-87
2022/01/23 14:16:53;;;;;;;30.17;18.90;;;8.80;99.90;;;;;;5012972;28;20467;-86
2022/01/23 14:19:23;;;;;;;36.03;20.57;;;8.80;99.90;;;;;;5010448;28;21223;-85
2022/01/23 14:22:34;;;;;;;30.57;18.60;;;9.00;99.90;;;;;;5010968;28;20451;-85
2022/01/23 14:25:12;;;;;;;27.47;17.03;;;8.80;99.90;;;;;;5004563;28;20463;-86
2022/01/23 14:27:42;;;;;;;31.03;19.07;;;8.50;99.90;;;;;;5024400;28;20565;-84
2022/01/23 14:30:14;;;;;;;34.10;20.03;;;8.60;99.90;;;;;;5007152;28;20468;-85
2022/01/23 14:32:47;;;;;;;32.47;21.40;;;8.80;99.90;;;;;;5006173;28;20469;-86
2022/01/23 14:35:27;;;;;;;35.40;21.70;;;8.90;99.90;;;;;;5008092;28;20482;-87
2022/01/23 14:38:11;;;;;;;29.00;19.80;;;9.00;99.90;;;;;;5011723;28;20572;-86
2022/01/23 14:40:39;;;;;;;31.93;20.20;;;8.70;99.90;;;;;;5008286;28;20477;-87
2022/01/23 14:43:12;;;;;;;32.13;20.27;;;8.50;99.90;;;;;;5006486;28;20517;-86
2022/01/23 14:45:47;;;;;;;37.80;19.87;;;8.80;99.90;;;;;;5008107;28;20451;-88
2022/01/23 14:48:16;;;;;;;34.60;20.93;;;8.90;99.90;;;;;;5002831;28;20467;-86
2022/01/23 14:50:46;;;;;;;38.57;22.73;;;8.90;99.90;;;;;;5011410;28;20804;-88
2022/01/23 14:53:18;;;;;;;36.40;22.70;;;8.80;99.90;;;;;;5010452;28;20932;-87
2022/01/23 14:55:48;;;;;;;35.73;21.83;;;8.90;99.90;;;;;;5009175;28;20800;-87
2022/01/23 14:58:20;;;;;;;39.53;22.90;;;8.90;99.90;;;;;;5009871;28;20960;-86
2022/01/23 15:00:52;;;;;;;37.63;20.90;;;8.90;99.90;;;;;;5008230;28;20461;-86
2022/01/23 15:03:21;;;;;;;39.53;22.30;;;8.80;99.90;;;;;;5013064;28;20797;-84
2022/01/23 15:05:51;;;;;;;36.40;22.43;;;8.80;99.90;;;;;;5008833;28;20462;-85
2022/01/23 15:08:24;;;;;;;33.80;20.87;;;8.90;99.90;;;;;;5011564;28;20457;-86
2022/01/23 15:10:59;;;;;;;35.77;22.23;;;8.80;99.90;;;;;;5012436;28;20462;-86
2022/01/23 15:13:29;;;;;;;37.30;21.23;;;8.80;99.90;;;;;;5014843;28;20450;-86
2022/01/23 15:16:01;;;;;;;39.20;23.53;;;8.70;99.90;;;;;;5007950;28;20550;-86
2022/01/23 15:18:35;;;;;;;17.67;11.30;;;8.70;99.90;;;;;;5011626;28;20543;-85
2022/01/23 15:21:02;;;;;;;16.00;10.00;;;8.60;99.90;;;;;;5008939;28;20454;-87
2022/01/23 15:23:39;;;;;;;12.73;8.63;;;8.60;99.90;;;;;;5008656;28;20983;-86
2022/01/23 15:26:06;;;;;;;15.83;10.40;;;8.70;99.60;;;;;;5016292;28;20478;-86
2022/01/23 15:28:33;;;;;;;17.10;10.90;;;8.50;99.50;;;;;;5014770;28;21005;-87
2022/01/23 15:31:00;;;;;;;12.30;8.00;;;8.60;99.50;;;;;;5015349;28;20454;-87
2022/01/23 15:33:47;;;;;;;8.97;5.80;;;8.70;99.00;;;;;;5008372;28;20458;-87
2022/01/23 15:37:03;;;;;;;11.67;7.77;;;8.70;97.40;;;;;;5021761;28;20454;-85
2022/01/23 15:39:37;;;;;;;11.70;7.67;;;8.70;97.50;;;;;;5013993;28;20524;-88
2022/01/23 15:42:13;;;;;;;7.80;5.67;;;8.90;97.70;;;;;;5010889;28;20463;-86
2022/01/23 15:44:54;;;;;;;8.67;5.77;;;8.90;96.80;;;;;;5006074;28;20470;-86
2022/01/23 15:47:20;;;;;;;8.63;4.57;;;8.80;96.00;;;;;;5000123;28;20499;-86
2022/01/23 15:49:56;;;;;;;5.93;4.70;;;8.70;95.50;;;;;;5014091;28;20454;-86
2022/01/23 15:52:27;;;;;;;5.10;3.90;;;8.60;95.30;;;;;;5025455;28;20546;-85
2022/01/23 15:55:10;;;;;;;6.87;4.50;;;8.70;94.80;;;;;;5028032;28;20487;-87
2022/01/23 15:57:55;;;;;;;5.37;4.40;;;8.70;94.90;;;;;;5059034;23;20504;-85
2022/01/23 16:00:24;;;;;;;5.47;4.20;;;8.50;94.80;;;;;;5045352;28;20446;-85
2022/01/23 16:02:52;;;;;;;4.00;3.60;;;8.30;95.20;;;;;;5035077;28;20464;-87
2022/01/23 16:05:19;;;;;;;4.57;4.03;;;8.40;95.20;;;;;;5031291;28;20485;-86
2022/01/23 16:07:47;;;;;;;5.20;3.73;;;8.60;94.70;;;;;;5017200;28;20485;-86
2022/01/23 16:10:14;;;;;;;6.07;3.80;;;8.60;94.00;;;;;;5016613;28;20477;-86
2022/01/23 16:12:42;;;;;;;6.53;4.80;;;8.60;94.30;;;;;;5018259;28;20462;-88
2022/01/23 16:15:14;;;;;;;6.20;4.60;;;8.30;94.60;;;;;;5014636;28;20482;-87
2022/01/23 16:17:42;;;;;;;5.67;4.60;;;8.60;95.10;;;;;;5013198;28;20533;-86
2022/01/23 16:20:10;;;;;;;6.37;4.93;;;8.50;95.00;;;;;;5013952;28;20466;-84
2022/01/23 16:22:39;;;;;;;6.60;4.50;;;8.50;95.10;;;;;;5014222;28;20487;-88
2022/01/23 16:25:07;;;;;;;7.57;5.30;;;8.80;94.50;;;;;;5015506;28;20459;-86
2022/01/23 16:27:34;;;;;;;7.80;5.13;;;8.70;94.40;;;;;;5007906;28;20822;-86
2022/01/23 16:30:19;;;;;;;8.00;4.87;;;8.60;94.50;;;;;;5018627;28;20497;-87
2022/01/23 16:33:00;;;;;;;6.00;4.57;;;8.70;94.40;;;;;;5010410;28;20517;-88